createdAt,value
2022-10-05T00:00:04.880Z,5.41
2022-10-05T00:01:06.822Z,5.43
2022-10-05T00:01:46.989Z,5.39
2022-10-05T00:02:28.788Z,5.54
2022-10-05T00:03:23.842Z,5.89
2022-10-05T00:04:17.052Z,6.01
2022-10-05T00:05:10.880Z,5.95
2022-10-05T00:05:45.897Z,6.09
2022-10-05T00:06:32.840Z,6.14
2022-10-05T00:07:14.417Z,6.11
2022-10-05T00:08:01.819Z,6.49
2022-10-05T00:08:41.809Z,6.54
2022-10-05T00:09:24.861Z,6.63
2022-10-05T00:10:05.791Z,6.69
2022-10-05T00:10:46.940Z,6.34
2022-10-05T00:11:26.796Z,5.95
2022-10-05T00:12:21.894Z,5.85
2022-10-05T00:13:08.782Z,6.15
2022-10-05T00:13:49.843Z,6.40
2022-10-05T00:14:46.784Z,6.40
2022-10-05T00:15:40.798Z,6.43
2022-10-05T00:16:34.863Z,5.94
2022-10-05T00:17:36.817Z,6.01
2022-10-05T00:18:32.783Z,6.16
2022-10-05T00:19:41.808Z,6.07
2022-10-05T00:20:32.849Z,6.48
2022-10-05T00:21:42.811Z,6.72
2022-10-05T00:22:24.838Z,9.31
2022-10-05T00:23:07.776Z,12.07
2022-10-05T00:23:47.889Z,8.69
2022-10-05T00:24:27.792Z,7.69
2022-10-05T00:25:09.804Z,6.88
2022-10-05T00:25:43.852Z,6.55
2022-10-05T00:26:32.759Z,6.46
2022-10-05T00:27:07.846Z,6.32
2022-10-05T00:28:03.819Z,6.32
2022-10-05T00:28:37.888Z,6.60
2022-10-05T00:29:28.749Z,6.64
2022-10-05T00:30:05.826Z,6.36
2022-10-05T00:30:45.815Z,6.21
2022-10-05T00:31:28.901Z,6.40
2022-10-05T00:32:08.867Z,6.72
2022-10-05T00:32:49.823Z,6.84
2022-10-05T00:33:29.795Z,6.43
2022-10-05T00:34:09.843Z,6.47
2022-10-05T00:34:50.759Z,6.31
2022-10-05T00:35:31.573Z,6.31
2022-10-05T00:36:13.809Z,6.45
2022-10-05T00:36:53.814Z,6.72
2022-10-05T00:37:33.784Z,6.44
2022-10-05T00:38:13.835Z,6.36
2022-10-05T00:38:53.783Z,6.61
2022-10-05T00:39:33.827Z,6.51
2022-10-05T00:40:25.757Z,6.36
2022-10-05T00:41:25.780Z,6.30
2022-10-05T00:42:31.736Z,6.51
2022-10-05T00:43:37.760Z,6.91
2022-10-05T00:44:39.783Z,6.93
2022-10-05T00:45:44.811Z,6.41
2022-10-05T00:46:59.795Z,6.70
2022-10-05T00:47:56.740Z,6.39
2022-10-05T00:48:56.768Z,6.38
2022-10-05T00:49:50.740Z,6.43
2022-10-05T00:51:12.817Z,6.60
2022-10-05T00:52:26.837Z,6.95
2022-10-05T00:53:45.768Z,6.89
2022-10-05T00:54:58.744Z,6.91
2022-10-05T00:56:07.748Z,6.64
2022-10-05T00:57:04.752Z,6.59
2022-10-05T00:58:15.783Z,6.86
2022-10-05T00:58:59.815Z,6.94
2022-10-05T01:00:11.799Z,6.82
2022-10-05T01:01:21.907Z,6.81
2022-10-05T01:02:19.846Z,6.70
2022-10-05T01:03:07.920Z,6.85
2022-10-05T01:04:03.793Z,6.81
2022-10-05T01:04:55.865Z,7.10
2022-10-05T01:05:35.739Z,7.72
2022-10-05T01:06:22.632Z,7.30
2022-10-05T01:07:24.775Z,7.29
2022-10-05T01:08:26.850Z,7.31
2022-10-05T01:09:50.802Z,6.88
2022-10-05T01:10:41.853Z,6.88
2022-10-05T01:11:43.738Z,6.75
2022-10-05T01:12:38.858Z,6.88
2022-10-05T01:13:25.736Z,6.85
2022-10-05T01:14:29.788Z,6.96
2022-10-05T01:15:21.756Z,6.74
2022-10-05T01:16:54.893Z,6.82
2022-10-05T01:17:51.792Z,7.07
2022-10-05T01:18:41.847Z,7.11
2022-10-05T01:19:27.743Z,7.05
2022-10-05T01:20:17.804Z,7.04
2022-10-05T01:21:12.738Z,7.09
2022-10-05T01:22:03.780Z,7.34
2022-10-05T01:22:58.732Z,7.38
2022-10-05T01:23:58.827Z,7.51
2022-10-05T01:25:21.749Z,7.63
2022-10-05T01:26:48.091Z,7.31
2022-10-05T01:28:01.831Z,6.90
2022-10-05T01:29:08.784Z,7.15
2022-10-05T01:30:32.730Z,7.06
2022-10-05T01:31:46.807Z,7.07
2022-10-05T01:32:45.710Z,7.26
2022-10-05T01:33:34.844Z,7.54
2022-10-05T01:34:29.705Z,7.69
2022-10-05T01:35:27.761Z,7.53
2022-10-05T01:36:16.740Z,7.13
2022-10-05T01:37:11.791Z,6.80
2022-10-05T01:38:44.737Z,6.81
2022-10-05T01:39:53.707Z,7.09
2022-10-05T01:40:59.699Z,7.06
2022-10-05T01:42:02.720Z,7.11
2022-10-05T01:42:59.725Z,6.90
2022-10-05T01:43:52.820Z,6.68
2022-10-05T01:44:39.714Z,6.78
2022-10-05T01:45:22.772Z,7.04
2022-10-05T01:46:12.756Z,7.11
2022-10-05T01:47:03.791Z,7.05
2022-10-05T01:47:56.680Z,7.18
2022-10-05T01:49:11.728Z,7.19
2022-10-05T01:49:54.786Z,7.15
2022-10-05T01:51:15.742Z,7.04
2022-10-05T01:51:59.844Z,7.15
2022-10-05T01:52:50.724Z,7.06
2022-10-05T01:53:38.829Z,7.04
2022-10-05T01:54:59.803Z,6.57
2022-10-05T01:56:00.846Z,6.72
2022-10-05T01:56:56.719Z,6.93
2022-10-05T01:57:56.772Z,7.19
2022-10-05T01:59:05.685Z,7.01
2022-10-05T02:00:21.719Z,6.95
2022-10-05T02:01:25.378Z,6.78
2022-10-05T02:02:16.813Z,6.63
2022-10-05T02:03:11.541Z,7.06
2022-10-05T02:04:56.939Z,7.24
2022-10-05T02:05:31.697Z,7.86
2022-10-05T02:06:38.735Z,8.98
2022-10-05T02:07:44.753Z,9.71
2022-10-05T02:08:43.755Z,9.56
2022-10-05T02:09:33.682Z,9.59
2022-10-05T02:10:44.720Z,8.52
2022-10-05T02:11:18.687Z,8.64
2022-10-05T02:12:10.668Z,9.18
2022-10-05T02:12:45.163Z,9.80
2022-10-05T02:13:50.664Z,9.36
2022-10-05T02:14:28.753Z,8.44
2022-10-05T02:15:25.724Z,7.63
2022-10-05T02:16:10.811Z,7.35
2022-10-05T02:16:53.790Z,6.53
2022-10-05T02:17:45.713Z,6.69
2022-10-05T02:18:33.772Z,6.81
2022-10-05T02:19:32.667Z,7.44
2022-10-05T02:20:16.719Z,8.29
2022-10-05T02:20:57.659Z,8.77
2022-10-05T02:21:40.699Z,8.65
2022-10-05T02:22:44.761Z,8.31
2022-10-05T02:23:24.386Z,7.89
2022-10-05T02:24:07.661Z,7.07
2022-10-05T02:25:00.753Z,6.88
2022-10-05T02:25:37.750Z,6.70
2022-10-05T02:26:18.649Z,6.70
2022-10-05T02:26:59.719Z,6.40
2022-10-05T02:27:52.472Z,6.45
2022-10-05T02:29:03.713Z,6.24
2022-10-05T02:29:40.164Z,6.07
2022-10-05T02:30:26.679Z,5.82
2022-10-05T02:31:11.542Z,6.09
2022-10-05T02:32:03.687Z,5.93
2022-10-05T02:33:01.309Z,5.70
2022-10-05T02:33:49.644Z,5.59
2022-10-05T02:34:31.814Z,5.65
2022-10-05T02:35:29.656Z,5.61
2022-10-05T02:36:16.117Z,5.94
2022-10-05T02:37:20.710Z,6.10
2022-10-05T02:38:07.457Z,5.66
2022-10-05T02:39:07.649Z,5.94
2022-10-05T02:40:18.634Z,6.03
2022-10-05T02:41:38.668Z,5.63
2022-10-05T02:42:41.680Z,5.76
2022-10-05T02:43:54.647Z,5.78
2022-10-05T02:45:15.630Z,5.76
2022-10-05T02:46:56.075Z,5.95
2022-10-05T02:48:05.688Z,5.44
2022-10-05T02:49:17.677Z,5.25
2022-10-05T02:50:21.643Z,5.38
2022-10-05T02:51:22.835Z,5.24
2022-10-05T02:52:22.640Z,5.10
2022-10-05T02:53:31.680Z,4.97
2022-10-05T02:54:38.673Z,5.24
2022-10-05T02:55:56.645Z,5.39
2022-10-05T02:57:18.639Z,4.95
2022-10-05T02:58:15.647Z,5.03
2022-10-05T02:59:06.757Z,5.15
2022-10-05T02:59:50.729Z,4.86
2022-10-05T03:00:31.631Z,5.01
2022-10-05T03:01:34.791Z,4.90
2022-10-05T03:02:43.647Z,5.24
2022-10-05T03:03:29.694Z,5.59
2022-10-05T03:04:33.648Z,4.96
2022-10-05T03:05:41.855Z,4.84
2022-10-05T03:06:27.673Z,5.01
2022-10-05T03:07:16.728Z,5.46
2022-10-05T03:08:10.627Z,5.21
2022-10-05T03:09:13.746Z,4.79
2022-10-05T03:10:16.634Z,4.55
2022-10-05T03:11:01.672Z,4.88
2022-10-05T03:12:05.607Z,4.63
2022-10-05T03:13:13.896Z,4.57
2022-10-05T03:14:10.664Z,4.66
2022-10-05T03:15:14.741Z,4.29
2022-10-05T03:15:55.687Z,4.53
2022-10-05T03:17:05.685Z,4.72
2022-10-05T03:18:00.601Z,4.54
2022-10-05T03:19:05.683Z,4.65
2022-10-05T03:20:03.623Z,4.54
2022-10-05T03:21:20.651Z,4.53
2022-10-05T03:22:30.640Z,4.47
2022-10-05T03:23:49.690Z,4.65
2022-10-05T03:24:55.070Z,4.34
2022-10-05T03:25:37.611Z,4.31
2022-10-05T03:27:08.653Z,4.54
2022-10-05T03:28:11.632Z,4.25
2022-10-05T03:29:36.639Z,4.28
2022-10-05T03:30:35.606Z,4.45
2022-10-05T03:31:56.590Z,4.22
2022-10-05T03:32:39.629Z,4.20
2022-10-05T03:33:41.736Z,4.22
2022-10-05T03:34:42.622Z,4.00
2022-10-05T03:35:35.685Z,4.09
2022-10-05T03:36:53.600Z,4.49
2022-10-05T03:37:46.636Z,4.49
2022-10-05T03:38:48.568Z,4.13
2022-10-05T03:40:15.628Z,4.22
2022-10-05T03:41:22.638Z,4.51
2022-10-05T03:42:23.576Z,4.35
2022-10-05T03:43:13.655Z,4.00
2022-10-05T03:44:20.677Z,4.14
2022-10-05T03:45:27.600Z,4.14
2022-10-05T03:46:17.750Z,4.04
2022-10-05T03:47:32.590Z,4.56
2022-10-05T03:48:21.667Z,4.40
2022-10-05T03:49:22.583Z,4.14
2022-10-05T03:50:34.588Z,4.18
2022-10-05T03:51:30.580Z,4.07
2022-10-05T03:52:51.587Z,4.09
2022-10-05T03:53:58.603Z,4.18
2022-10-05T03:54:54.638Z,4.28
2022-10-05T03:55:54.584Z,4.47
2022-10-05T03:56:42.678Z,4.56
2022-10-05T03:57:34.555Z,4.47
2022-10-05T03:58:13.635Z,4.21
2022-10-05T03:59:07.697Z,4.46
2022-10-05T03:59:48.679Z,4.29
2022-10-05T04:00:37.621Z,4.43
2022-10-05T04:01:15.731Z,4.59
2022-10-05T04:02:06.594Z,4.45
2022-10-05T04:03:02.674Z,4.18
2022-10-05T04:03:59.555Z,4.06
2022-10-05T04:05:00.589Z,4.14
2022-10-05T04:06:02.595Z,4.32
2022-10-05T04:07:00.600Z,4.21
2022-10-05T04:08:03.561Z,4.35
2022-10-05T04:09:12.658Z,4.13
2022-10-05T04:10:06.601Z,3.90
2022-10-05T04:11:03.565Z,4.13
2022-10-05T04:12:04.588Z,4.14
2022-10-05T04:13:04.584Z,4.06
2022-10-05T04:14:03.570Z,4.24
2022-10-05T04:15:00.592Z,4.25
2022-10-05T04:15:46.664Z,4.31
2022-10-05T04:16:35.665Z,4.46
2022-10-05T04:17:19.545Z,4.19
2022-10-05T04:18:04.643Z,4.16
2022-10-05T04:19:03.578Z,5.29
2022-10-05T04:19:50.685Z,5.94
2022-10-05T04:20:51.596Z,4.63
2022-10-05T04:21:55.665Z,4.35
2022-10-05T04:22:45.540Z,4.28
2022-10-05T04:23:44.642Z,4.51
2022-10-05T04:24:44.566Z,4.22
2022-10-05T04:25:31.620Z,4.45
2022-10-05T04:26:35.612Z,4.57
2022-10-05T04:27:23.671Z,4.86
2022-10-05T04:28:12.630Z,4.65
2022-10-05T04:29:19.648Z,4.32
2022-10-05T04:30:11.554Z,4.20
2022-10-05T04:30:53.626Z,4.32
2022-10-05T04:31:47.705Z,4.30
2022-10-05T04:32:59.424Z,4.63
2022-10-05T04:33:39.575Z,5.00
2022-10-05T04:34:56.679Z,5.85
2022-10-05T04:35:51.572Z,8.00
2022-10-05T04:36:37.643Z,8.60
2022-10-05T04:37:28.556Z,8.40
2022-10-05T04:38:23.655Z,8.80
2022-10-05T04:39:22.595Z,7.43
2022-10-05T04:40:15.653Z,5.68
2022-10-05T04:41:16.618Z,6.35
2022-10-05T04:42:07.448Z,6.34
2022-10-05T04:43:14.590Z,6.20
2022-10-05T04:44:18.614Z,6.60
2022-10-05T04:45:15.624Z,6.90
2022-10-05T04:46:16.692Z,7.11
2022-10-05T04:47:15.631Z,6.26
2022-10-05T04:48:26.571Z,5.94
2022-10-05T04:50:00.713Z,5.56
2022-10-05T04:51:14.537Z,5.13
2022-10-05T04:52:26.532Z,5.01
2022-10-05T04:53:23.604Z,4.95
2022-10-05T04:54:11.561Z,4.90
2022-10-05T04:55:18.583Z,4.94
2022-10-05T04:56:06.514Z,4.61
2022-10-05T04:56:49.954Z,4.70
2022-10-05T04:57:36.539Z,4.76
2022-10-05T04:58:28.587Z,4.40
2022-10-05T04:59:32.612Z,4.80
2022-10-05T05:00:16.624Z,4.81
2022-10-05T05:01:18.618Z,4.70
2022-10-05T05:02:06.765Z,4.45
2022-10-05T05:03:17.507Z,4.45
2022-10-05T05:04:21.615Z,4.80
2022-10-05T05:05:26.551Z,4.75
2022-10-05T05:06:30.719Z,4.60
2022-10-05T05:07:32.539Z,5.04
2022-10-05T05:08:15.581Z,4.96
2022-10-05T05:09:16.489Z,4.44
2022-10-05T05:10:26.017Z,4.31
2022-10-05T05:11:27.543Z,4.24
2022-10-05T05:12:26.604Z,4.21
2022-10-05T05:13:30.576Z,4.36
2022-10-05T05:14:26.766Z,4.47
2022-10-05T05:15:03.520Z,4.47
2022-10-05T05:16:00.596Z,4.54
2022-10-05T05:16:45.738Z,4.59
2022-10-05T05:17:50.656Z,4.72
2022-10-05T05:18:59.513Z,4.46
2022-10-05T05:19:47.556Z,4.25
2022-10-05T05:21:07.193Z,4.32
2022-10-05T05:22:03.540Z,4.45
2022-10-05T05:23:10.493Z,4.60
2022-10-05T05:24:14.545Z,4.41
2022-10-05T05:25:13.521Z,4.47
2022-10-05T05:26:35.619Z,4.35
2022-10-05T05:27:45.528Z,4.31
2022-10-05T05:28:42.546Z,4.31
2022-10-05T05:30:09.547Z,4.31
2022-10-05T05:31:02.587Z,4.56
2022-10-05T05:32:03.489Z,4.60
2022-10-05T05:32:40.602Z,4.46
2022-10-05T05:33:29.534Z,4.32
2022-10-05T05:34:46.601Z,4.34
2022-10-05T05:35:48.467Z,4.50
2022-10-05T05:37:00.578Z,4.43
2022-10-05T05:38:05.504Z,4.66
2022-10-05T05:39:00.553Z,4.63
2022-10-05T05:39:49.651Z,4.49
2022-10-05T05:40:43.543Z,4.61
2022-10-05T05:41:19.592Z,4.66
2022-10-05T05:42:31.701Z,4.45
2022-10-05T05:43:35.572Z,4.56
2022-10-05T05:44:50.512Z,4.81
2022-10-05T05:45:34.133Z,4.53
2022-10-05T05:46:51.056Z,4.50
2022-10-05T05:47:26.772Z,4.94
2022-10-05T05:48:46.476Z,5.05
2022-10-05T05:50:21.520Z,4.84
2022-10-05T05:51:29.473Z,4.91
2022-10-05T05:52:32.477Z,4.93
2022-10-05T05:53:32.471Z,5.00
2022-10-05T05:54:29.498Z,4.82
2022-10-05T05:55:36.490Z,5.15
2022-10-05T05:56:37.489Z,6.26
2022-10-05T05:57:45.495Z,7.05
2022-10-05T05:58:46.504Z,8.24
2022-10-05T05:59:51.516Z,10.55
2022-10-05T06:00:51.571Z,9.44
2022-10-05T06:01:57.569Z,10.27
2022-10-05T06:02:56.570Z,9.05
2022-10-05T06:03:59.462Z,7.75
2022-10-05T06:04:59.457Z,7.25
2022-10-05T06:05:58.483Z,6.95
2022-10-05T06:06:56.451Z,7.19
2022-10-05T06:07:51.494Z,7.40
2022-10-05T06:09:05.457Z,5.80
2022-10-05T06:10:35.458Z,5.56
2022-10-05T06:11:29.505Z,6.00
2022-10-05T06:12:09.696Z,6.38
2022-10-05T06:13:00.921Z,6.34
2022-10-05T06:13:45.523Z,7.20
2022-10-05T06:14:50.449Z,6.66
2022-10-05T06:15:37.553Z,6.75
2022-10-05T06:16:47.858Z,6.65
2022-10-05T06:17:39.545Z,6.43
2022-10-05T06:21:32.571Z,5.69
2022-10-05T06:22:29.501Z,5.22
2022-10-05T06:23:14.575Z,5.20
2022-10-05T06:24:04.437Z,5.13
2022-10-05T06:25:00.508Z,5.35
2022-10-05T06:26:13.435Z,5.61
2022-10-05T06:27:37.507Z,5.75
2022-10-05T06:28:32.508Z,7.20
2022-10-05T06:29:32.436Z,8.21
2022-10-05T06:30:28.443Z,6.14
2022-10-05T06:31:44.512Z,5.30
2022-10-05T06:32:53.493Z,4.85
2022-10-05T06:34:25.445Z,5.53
2022-10-05T06:35:44.450Z,6.32
2022-10-05T06:37:02.454Z,5.47
2022-10-05T06:38:01.500Z,5.61
2022-10-05T06:39:01.443Z,4.96
2022-10-05T06:40:01.591Z,4.68
2022-10-05T06:41:17.444Z,4.29
2022-10-05T06:42:42.470Z,4.60
2022-10-05T06:43:54.504Z,4.86
2022-10-05T06:44:41.513Z,5.05
2022-10-05T06:46:11.478Z,5.66
2022-10-05T06:47:14.539Z,5.80
2022-10-05T06:48:05.202Z,6.14
2022-10-05T06:49:14.474Z,5.65
2022-10-05T06:50:32.447Z,5.84
2022-10-05T06:51:40.418Z,6.43
2022-10-05T06:52:34.411Z,6.29
2022-10-05T06:53:38.405Z,8.44
2022-10-05T06:54:32.681Z,10.19
2022-10-05T06:55:43.485Z,10.48
2022-10-05T06:56:42.432Z,6.97
2022-10-05T06:58:03.496Z,6.21
2022-10-05T06:59:08.396Z,6.54
2022-10-05T07:00:11.475Z,6.71
2022-10-05T07:00:59.514Z,7.76
2022-10-05T07:01:54.499Z,8.70
2022-10-05T07:02:52.700Z,8.24
2022-10-05T07:03:50.483Z,6.97
2022-10-05T07:04:42.545Z,6.22
2022-10-05T07:06:06.488Z,6.57
2022-10-05T07:06:49.579Z,6.51
2022-10-05T07:08:05.426Z,6.16
2022-10-05T07:08:54.513Z,5.65
2022-10-05T07:09:49.411Z,5.89
2022-10-05T07:10:49.597Z,5.84
2022-10-05T07:11:55.258Z,5.34
2022-10-05T07:12:48.563Z,6.07
2022-10-05T07:13:43.395Z,6.85
2022-10-05T07:14:43.507Z,5.88
2022-10-05T07:15:31.451Z,5.71
2022-10-05T07:16:32.545Z,5.82
2022-10-05T07:17:37.516Z,5.56
2022-10-05T07:18:35.707Z,5.31
2022-10-05T07:19:27.399Z,4.91
2022-10-05T07:20:20.441Z,5.03
2022-10-05T07:21:29.440Z,5.22
2022-10-05T07:22:18.900Z,5.14
2022-10-05T07:23:18.458Z,5.14
2022-10-05T07:24:29.177Z,5.28
2022-10-05T07:25:29.438Z,5.22
2022-10-05T07:26:24.509Z,5.11
2022-10-05T07:27:10.440Z,5.13
2022-10-05T07:28:14.502Z,5.26
2022-10-05T07:29:13.436Z,4.90
2022-10-05T07:30:11.563Z,4.71
2022-10-05T07:31:08.483Z,4.76
2022-10-05T07:31:57.533Z,4.61
2022-10-05T07:32:51.371Z,4.63
2022-10-05T07:33:36.543Z,4.79
2022-10-05T07:34:29.427Z,4.66
2022-10-05T07:35:43.046Z,4.41
2022-10-05T07:37:09.405Z,4.50
2022-10-05T07:37:57.723Z,4.64
2022-10-05T07:38:44.371Z,4.38
2022-10-05T07:40:06.548Z,4.30
2022-10-05T07:41:23.821Z,4.61
2022-10-05T07:42:17.367Z,4.94
2022-10-05T07:43:16.488Z,4.75
2022-10-05T07:44:12.518Z,4.94
2022-10-05T07:45:27.480Z,5.43
2022-10-05T07:46:26.411Z,6.51
2022-10-05T07:47:37.410Z,6.64
2022-10-05T07:48:50.411Z,5.56
2022-10-05T07:50:01.364Z,6.95
2022-10-05T07:51:06.395Z,7.85
2022-10-05T07:51:46.456Z,7.15
2022-10-05T07:52:40.401Z,7.04
2022-10-05T07:53:30.051Z,6.88
2022-10-05T07:54:25.386Z,7.25
2022-10-05T07:55:33.452Z,6.10
2022-10-05T07:56:48.830Z,6.54
2022-10-05T07:57:41.439Z,9.00
2022-10-05T07:58:38.339Z,10.80
2022-10-05T07:59:24.454Z,8.32
2022-10-05T08:00:29.409Z,6.11
2022-10-05T08:01:29.670Z,5.59
2022-10-05T08:02:39.452Z,7.30
2022-10-05T08:03:40.472Z,9.95
2022-10-05T08:04:41.988Z,8.54
2022-10-05T08:05:32.433Z,5.78
2022-10-05T08:06:18.355Z,5.57
2022-10-05T08:07:03.425Z,4.97
2022-10-05T08:07:44.481Z,4.64
2022-10-05T08:08:38.428Z,4.68
2022-10-05T08:09:44.564Z,5.25
2022-10-05T08:10:56.439Z,5.51
2022-10-05T08:12:14.349Z,4.72
2022-10-05T08:13:34.392Z,4.20
2022-10-05T08:14:56.356Z,4.22
2022-10-05T08:15:55.404Z,4.29
2022-10-05T08:16:51.342Z,3.95
2022-10-05T08:17:53.626Z,3.85
2022-10-05T08:18:55.384Z,3.86
2022-10-05T08:19:39.872Z,3.94
2022-10-05T08:20:56.357Z,3.84
2022-10-05T08:21:38.092Z,4.56
2022-10-05T08:22:31.365Z,5.63
2022-10-05T08:23:23.524Z,6.00
2022-10-05T08:24:20.376Z,6.69
2022-10-05T08:24:59.450Z,7.59
2022-10-05T08:26:32.355Z,7.07
2022-10-05T08:27:32.945Z,5.43
2022-10-05T08:28:54.343Z,4.45
2022-10-05T08:29:57.364Z,4.51
2022-10-05T08:30:40.382Z,5.18
2022-10-05T08:31:30.358Z,5.10
2022-10-05T08:32:13.546Z,4.35
2022-10-05T08:33:01.385Z,4.10
2022-10-05T08:33:52.596Z,4.41
2022-10-05T08:35:13.411Z,4.31
2022-10-05T08:36:14.402Z,4.10
2022-10-05T08:37:11.307Z,4.19
2022-10-05T08:37:52.551Z,4.07
2022-10-05T08:38:38.309Z,4.03
2022-10-05T08:39:24.171Z,4.44
2022-10-05T08:40:36.375Z,4.84
2022-10-05T08:41:42.405Z,4.76
2022-10-05T08:43:19.313Z,4.54
2022-10-05T08:44:50.383Z,4.01
2022-10-05T08:45:36.359Z,3.63
2022-10-05T08:46:28.610Z,3.60
2022-10-05T08:47:13.308Z,3.55
2022-10-05T08:48:15.397Z,3.71
2022-10-05T08:49:16.322Z,3.76
2022-10-05T08:50:10.356Z,3.58
2022-10-05T08:51:29.323Z,3.33
2022-10-05T08:52:45.369Z,3.35
2022-10-05T08:54:02.296Z,3.44
2022-10-05T08:55:16.373Z,3.21
2022-10-05T08:56:29.065Z,2.97
2022-10-05T08:57:30.329Z,3.13
2022-10-05T08:58:19.406Z,3.14
2022-10-05T08:58:59.199Z,3.09
2022-10-05T08:59:47.329Z,3.35
2022-10-05T09:00:24.384Z,3.09
2022-10-05T09:01:02.076Z,2.99
2022-10-05T09:01:57.437Z,3.09
2022-10-05T09:03:08.744Z,3.26
2022-10-05T09:04:04.203Z,3.36
2022-10-05T09:04:56.325Z,3.30
2022-10-05T09:05:30.411Z,3.26
2022-10-05T09:06:22.078Z,3.31
2022-10-05T09:07:28.356Z,3.01
2022-10-05T09:08:35.391Z,3.03
2022-10-05T09:09:39.276Z,3.03
2022-10-05T09:10:53.305Z,2.96
2022-10-05T09:11:46.648Z,3.35
2022-10-05T09:12:51.453Z,3.38
2022-10-05T09:14:03.390Z,3.36
2022-10-05T09:15:24.880Z,3.16
2022-10-05T09:16:10.440Z,2.99
2022-10-05T09:16:59.291Z,2.55
2022-10-05T09:18:15.333Z,2.67
2022-10-05T09:18:51.922Z,2.65
2022-10-05T09:20:02.335Z,2.64
2022-10-05T09:20:55.688Z,2.63
2022-10-05T09:21:53.303Z,2.49
2022-10-05T09:22:39.571Z,2.43
2022-10-05T09:23:46.334Z,2.39
2022-10-05T09:24:56.443Z,2.34
2022-10-05T09:25:52.287Z,2.53
2022-10-05T09:26:41.039Z,2.44
2022-10-05T09:27:32.294Z,2.45
2022-10-05T09:28:25.279Z,2.49
2022-10-05T09:29:34.283Z,2.41
2022-10-05T09:30:22.412Z,2.41
2022-10-05T09:31:02.844Z,2.28
2022-10-05T09:31:58.293Z,2.46
2022-10-05T09:32:41.410Z,2.55
2022-10-05T09:33:35.816Z,2.61
2022-10-05T09:34:48.300Z,2.74
2022-10-05T09:35:52.370Z,2.69
2022-10-05T09:36:30.159Z,2.41
2022-10-05T09:37:24.292Z,2.50
2022-10-05T09:38:23.227Z,2.15
2022-10-05T09:39:16.803Z,2.31
2022-10-05T09:40:28.308Z,2.24
2022-10-05T09:41:43.581Z,2.25
2022-10-05T09:42:35.575Z,2.21
2022-10-05T09:43:30.257Z,2.16
2022-10-05T09:44:18.822Z,2.11
2022-10-05T09:45:01.587Z,2.28
2022-10-05T09:46:00.311Z,2.31
2022-10-05T09:46:48.387Z,2.15
2022-10-05T09:47:35.238Z,2.47
2022-10-05T09:48:49.267Z,2.47
2022-10-05T09:50:00.321Z,2.39
2022-10-05T09:50:54.047Z,2.81
2022-10-05T09:51:55.317Z,3.47
2022-10-05T09:52:54.401Z,3.45
2022-10-05T09:53:48.952Z,2.71
2022-10-05T09:55:07.246Z,2.53
2022-10-05T09:56:19.625Z,2.42
2022-10-05T09:57:39.322Z,2.76
2022-10-05T09:58:44.869Z,3.06
2022-10-05T09:59:51.241Z,2.84
2022-10-05T10:01:09.290Z,2.30
2022-10-05T10:02:10.326Z,2.26
2022-10-05T10:03:09.319Z,2.97
2022-10-05T10:03:56.608Z,3.44
2022-10-05T10:05:12.247Z,3.17
2022-10-05T10:06:10.459Z,2.54
2022-10-05T10:07:16.266Z,2.63
2022-10-05T10:08:36.274Z,2.61
2022-10-05T10:09:34.052Z,2.44
2022-10-05T10:10:29.337Z,2.14
2022-10-05T10:11:34.275Z,2.17
2022-10-05T10:12:40.255Z,2.19
2022-10-05T10:14:00.354Z,2.33
2022-10-05T10:15:19.224Z,2.14
2022-10-05T10:16:19.324Z,2.10
2022-10-05T10:17:19.265Z,2.56
2022-10-05T10:18:25.295Z,2.20
2022-10-05T10:19:52.264Z,2.80
2022-10-05T10:20:55.421Z,3.35
2022-10-05T10:22:01.205Z,2.81
2022-10-05T10:23:13.294Z,3.38
2022-10-05T10:24:26.282Z,2.95
2022-10-05T10:25:32.299Z,4.00
2022-10-05T10:26:27.296Z,4.64
2022-10-05T10:27:17.241Z,3.84
2022-10-05T10:27:54.173Z,3.24
2022-10-05T10:29:17.332Z,2.94
2022-10-05T10:29:51.692Z,3.49
2022-10-05T10:30:47.328Z,3.60
2022-10-05T10:31:44.563Z,3.03
2022-10-05T10:32:41.234Z,2.49
2022-10-05T10:33:38.392Z,2.35
2022-10-05T10:34:44.222Z,2.58
2022-10-05T10:35:37.283Z,2.70
2022-10-05T10:36:25.291Z,3.13
2022-10-05T10:37:40.579Z,2.54
2022-10-05T10:38:45.217Z,2.50
2022-10-05T10:39:28.299Z,3.03
2022-10-05T10:40:27.241Z,2.56
2022-10-05T10:41:22.355Z,2.71
2022-10-05T10:42:09.245Z,2.66
2022-10-05T10:43:08.276Z,2.34
2022-10-05T10:44:22.216Z,1.98
2022-10-05T10:45:14.283Z,2.34
2022-10-05T10:46:14.305Z,2.34
2022-10-05T10:47:06.288Z,2.29
2022-10-05T10:47:54.242Z,2.53
2022-10-05T10:48:37.860Z,2.24
2022-10-05T10:49:37.255Z,2.15
2022-10-05T10:50:36.532Z,2.08
2022-10-05T10:51:39.235Z,2.11
2022-10-05T10:52:40.365Z,2.14
2022-10-05T10:53:38.244Z,2.05
2022-10-05T10:54:45.262Z,2.08
2022-10-05T10:55:57.217Z,2.09
2022-10-05T10:57:04.415Z,1.83
2022-10-05T10:58:01.219Z,2.05
2022-10-05T10:59:07.235Z,2.06
2022-10-05T11:00:22.303Z,1.84
2022-10-05T11:01:22.229Z,1.75
2022-10-05T11:02:44.315Z,1.85
2022-10-05T11:03:56.205Z,1.75
2022-10-05T11:05:08.239Z,1.79
2022-10-05T11:06:14.347Z,1.80
2022-10-05T11:07:15.231Z,1.73
2022-10-05T11:08:01.295Z,1.76
2022-10-05T11:09:02.218Z,1.75
2022-10-05T11:10:21.256Z,1.76
2022-10-05T11:11:21.201Z,1.85
2022-10-05T11:12:30.929Z,2.00
2022-10-05T11:13:41.179Z,1.71
2022-10-05T11:14:59.222Z,1.76
2022-10-05T11:16:37.354Z,1.79
2022-10-05T11:17:25.264Z,1.80
2022-10-05T11:18:29.200Z,1.80
2022-10-05T11:19:15.261Z,1.55
2022-10-05T11:20:12.196Z,1.74
2022-10-05T11:21:30.445Z,1.77
2022-10-05T11:22:27.245Z,1.73
2022-10-05T11:23:25.272Z,1.59
2022-10-05T11:24:17.203Z,1.58
2022-10-05T11:25:04.272Z,1.71
2022-10-05T11:26:00.200Z,1.73
2022-10-05T11:27:17.377Z,1.44
2022-10-05T11:28:24.252Z,1.63
2022-10-05T11:29:05.278Z,1.50
2022-10-05T11:30:29.200Z,1.73
2022-10-05T11:31:12.275Z,1.75
2022-10-05T11:32:01.171Z,1.74
2022-10-05T11:32:53.294Z,1.76
2022-10-05T11:33:42.185Z,1.79
2022-10-05T11:34:29.324Z,1.64
2022-10-05T11:35:10.185Z,1.91
2022-10-05T11:36:15.251Z,2.20
2022-10-05T11:37:17.196Z,2.10
2022-10-05T11:38:09.600Z,2.14
2022-10-05T11:39:15.230Z,2.19
2022-10-05T11:40:28.278Z,2.19
2022-10-05T11:41:27.194Z,2.42
2022-10-05T11:42:46.264Z,2.56
2022-10-05T11:43:29.225Z,2.49
2022-10-05T11:44:34.215Z,2.78
2022-10-05T11:45:43.231Z,2.67
2022-10-05T11:46:49.273Z,2.16
2022-10-05T11:48:03.301Z,2.24
2022-10-05T11:49:38.229Z,2.71
2022-10-05T11:51:11.307Z,2.94
2022-10-05T11:52:31.314Z,2.29
2022-10-05T11:53:29.181Z,2.28
2022-10-05T11:55:09.843Z,2.96
2022-10-05T11:56:12.211Z,2.94
2022-10-05T11:57:29.246Z,2.51
2022-10-05T11:58:37.241Z,2.03
2022-10-05T11:59:48.196Z,1.88
2022-10-05T12:00:53.228Z,2.03
2022-10-05T12:02:06.200Z,2.92
2022-10-05T12:03:20.276Z,3.94
2022-10-05T12:04:32.198Z,3.64
2022-10-05T12:06:00.221Z,2.91
2022-10-05T12:07:21.293Z,3.20
2022-10-05T12:08:22.177Z,3.04
2022-10-05T12:09:23.302Z,2.55
2022-10-05T12:10:23.194Z,2.54
2022-10-05T12:11:40.181Z,2.68
2022-10-05T12:12:39.228Z,2.34
2022-10-05T12:13:42.175Z,1.92
2022-10-05T12:14:58.244Z,1.95
2022-10-05T12:16:28.241Z,2.09
2022-10-05T12:17:27.285Z,1.99
2022-10-05T12:18:13.581Z,2.05
2022-10-05T12:19:02.134Z,2.20
2022-10-05T12:19:46.295Z,2.25
2022-10-05T12:20:35.251Z,2.10
2022-10-05T12:21:24.370Z,1.79
2022-10-05T12:22:22.182Z,1.92
2022-10-05T12:23:05.177Z,2.19
2022-10-05T12:23:53.257Z,2.21
2022-10-05T12:24:43.175Z,2.14
2022-10-05T12:25:40.515Z,2.30
2022-10-05T12:26:34.209Z,2.36
2022-10-05T12:27:17.291Z,2.17
2022-10-05T12:28:11.244Z,2.08
2022-10-05T12:28:50.292Z,2.35
2022-10-05T12:29:42.161Z,2.71
2022-10-05T12:31:02.261Z,2.88
2022-10-05T12:32:13.206Z,2.91
2022-10-05T12:33:08.332Z,3.10
2022-10-05T12:34:12.244Z,2.63
2022-10-05T12:35:36.520Z,2.05
2022-10-05T12:37:05.624Z,1.99
2022-10-05T12:37:52.275Z,2.00
2022-10-05T12:38:37.135Z,2.06
2022-10-05T12:39:39.236Z,1.84
2022-10-05T12:40:52.173Z,1.88
2022-10-05T12:42:07.143Z,2.08
2022-10-05T12:43:28.216Z,2.11
2022-10-05T12:44:51.246Z,2.03
2022-10-05T12:46:00.179Z,1.79
2022-10-05T12:47:14.216Z,1.71
2022-10-05T12:48:37.132Z,1.89
2022-10-05T12:49:37.251Z,1.80
2022-10-05T12:50:27.186Z,1.76
2022-10-05T12:51:42.321Z,1.83
2022-10-05T12:52:45.259Z,1.90
2022-10-05T12:53:54.008Z,2.06
2022-10-05T12:54:53.259Z,2.06
2022-10-05T12:55:55.274Z,2.00
2022-10-05T12:57:02.155Z,2.01
2022-10-05T12:58:35.102Z,2.46
2022-10-05T12:59:33.141Z,2.61
2022-10-05T13:00:30.160Z,2.60
2022-10-05T13:01:49.298Z,2.44
2022-10-05T13:02:44.191Z,2.49
2022-10-05T13:03:35.108Z,2.46
2022-10-05T13:04:27.232Z,2.72
2022-10-05T13:05:17.168Z,2.94
2022-10-05T13:06:19.231Z,3.40
2022-10-05T13:07:16.221Z,2.78
2022-10-05T13:08:04.220Z,2.26
2022-10-05T13:09:01.143Z,2.38
2022-10-05T13:09:49.476Z,2.64
2022-10-05T13:10:48.152Z,2.70
2022-10-05T13:11:28.172Z,2.96
2022-10-05T13:12:37.165Z,2.79
2022-10-05T13:13:26.421Z,2.46
2022-10-05T13:14:49.160Z,2.76
2022-10-05T13:15:51.262Z,2.91